sensor_id;sensor_type;location;lat;lon;timestamp;pressure;altitude;pressure_sealevel;temperature;humidity
48095;BME280;33874;52.070;-0.516;2023-03-03T00:01:35;102467.51;;;4.51;71.98
48095;BME280;33874;52.070;-0.516;2023-03-03T00:04:03;102470.02;;;4.48;71.62
48095;BME280;33874;52.070;-0.516;2023-03-03T00:06:31;102473.58;;;4.46;71.49
48095;BME280;33874;52.070;-0.516;2023-03-03T00:08:59;102471.39;;;4.44;71.44
48095;BME280;33874;52.070;-0.516;2023-03-03T00:11:27;102465.70;;;4.41;71.43
48095;BME280;33874;52.070;-0.516;2023-03-03T00:13:55;102468.38;;;4.40;71.46
48095;BME280;33874;52.070;-0.516;2023-03-03T00:16:38;102470.48;;;4.39;71.40
48095;BME280;33874;52.070;-0.516;2023-03-03T00:19:13;102474.13;;;4.39;71.48
48095;BME280;33874;52.070;-0.516;2023-03-03T00:21:44;102473.98;;;4.39;71.49
48095;BME280;33874;52.070;-0.516;2023-03-03T00:26:41;102476.82;;;4.37;71.58
48095;BME280;33874;52.070;-0.516;2023-03-03T00:29:27;102479.27;;;4.37;71.49
48095;BME280;33874;52.070;-0.516;2023-03-03T00:34:38;102479.45;;;4.36;71.68
48095;BME280;33874;52.070;-0.516;2023-03-03T00:37:29;102482.05;;;4.37;71.59
48095;BME280;33874;52.070;-0.516;2023-03-03T00:39:58;102478.04;;;4.37;71.57
48095;BME280;33874;52.070;-0.516;2023-03-03T00:42:29;102477.55;;;4.36;71.58
48095;BME280;33874;52.070;-0.516;2023-03-03T00:45:04;102476.86;;;4.36;71.71
48095;BME280;33874;52.070;-0.516;2023-03-03T00:47:43;102476.87;;;4.35;71.58
48095;BME280;33874;52.070;-0.516;2023-03-03T00:52:47;102472.51;;;4.35;71.70
48095;BME280;33874;52.070;-0.516;2023-03-03T00:55:20;102471.27;;;4.37;71.70
48095;BME280;33874;52.070;-0.516;2023-03-03T00:57:48;102471.62;;;4.36;71.65
48095;BME280;33874;52.070;-0.516;2023-03-03T01:00:15;102473.36;;;4.36;71.70
48095;BME280;33874;52.070;-0.516;2023-03-03T01:02:43;102477.75;;;4.35;71.49
48095;BME280;33874;52.070;-0.516;2023-03-03T01:05:14;102472.60;;;4.32;71.53
48095;BME280;33874;52.070;-0.516;2023-03-03T01:07:42;102474.40;;;4.31;71.49
48095;BME280;33874;52.070;-0.516;2023-03-03T01:10:10;102476.82;;;4.31;71.49
48095;BME280;33874;52.070;-0.516;2023-03-03T01:12:38;102478.19;;;4.32;71.70
48095;BME280;33874;52.070;-0.516;2023-03-03T01:15:06;102476.77;;;4.32;71.59
48095;BME280;33874;52.070;-0.516;2023-03-03T01:17:34;102479.89;;;4.33;71.38
48095;BME280;33874;52.070;-0.516;2023-03-03T01:20:05;102479.71;;;4.33;71.56
48095;BME280;33874;52.070;-0.516;2023-03-03T01:22:33;102479.02;;;4.33;71.61
48095;BME280;33874;52.070;-0.516;2023-03-03T01:25:01;102480.77;;;4.33;71.61
48095;BME280;33874;52.070;-0.516;2023-03-03T01:27:33;102478.02;;;4.32;71.56
48095;BME280;33874;52.070;-0.516;2023-03-03T01:30:02;102478.73;;;4.31;71.35
48095;BME280;33874;52.070;-0.516;2023-03-03T01:32:30;102481.71;;;4.30;71.42
48095;BME280;33874;52.070;-0.516;2023-03-03T01:34:58;102480.83;;;4.31;71.49
48095;BME280;33874;52.070;-0.516;2023-03-03T01:37:26;102478.70;;;4.32;71.35
48095;BME280;33874;52.070;-0.516;2023-03-03T01:39:54;102479.90;;;4.33;71.33
48095;BME280;33874;52.070;-0.516;2023-03-03T01:42:22;102473.98;;;4.32;71.56
48095;BME280;33874;52.070;-0.516;2023-03-03T01:45:06;102476.27;;;4.32;71.58
48095;BME280;33874;52.070;-0.516;2023-03-03T01:47:36;102474.41;;;4.30;71.60
48095;BME280;33874;52.070;-0.516;2023-03-03T01:50:05;102474.77;;;4.30;71.70
48095;BME280;33874;52.070;-0.516;2023-03-03T01:52:39;102471.66;;;4.29;71.87
48095;BME280;33874;52.070;-0.516;2023-03-03T01:55:11;102475.14;;;4.29;71.92
48095;BME280;33874;52.070;-0.516;2023-03-03T01:57:41;102475.48;;;4.29;71.92
48095;BME280;33874;52.070;-0.516;2023-03-03T02:00:10;102476.70;;;4.29;71.91
48095;BME280;33874;52.070;-0.516;2023-03-03T02:02:39;102480.70;;;4.29;71.99
48095;BME280;33874;52.070;-0.516;2023-03-03T02:05:07;102477.92;;;4.29;72.09
48095;BME280;33874;52.070;-0.516;2023-03-03T02:07:35;102483.34;;;4.28;72.07
48095;BME280;33874;52.070;-0.516;2023-03-03T02:10:05;102481.31;;;4.27;72.04
48095;BME280;33874;52.070;-0.516;2023-03-03T02:12:43;102481.85;;;4.26;72.23
48095;BME280;33874;52.070;-0.516;2023-03-03T02:17:50;102481.59;;;4.23;72.37
48095;BME280;33874;52.070;-0.516;2023-03-03T02:22:52;102478.83;;;4.23;72.33
48095;BME280;33874;52.070;-0.516;2023-03-03T02:25:26;102480.17;;;4.24;72.38
48095;BME280;33874;52.070;-0.516;2023-03-03T02:27:55;102480.83;;;4.25;72.49
48095;BME280;33874;52.070;-0.516;2023-03-03T02:30:24;102480.30;;;4.26;72.45
48095;BME280;33874;52.070;-0.516;2023-03-03T02:32:52;102481.54;;;4.25;72.51
48095;BME280;33874;52.070;-0.516;2023-03-03T02:35:27;102482.98;;;4.23;72.44
48095;BME280;33874;52.070;-0.516;2023-03-03T02:37:56;102484.21;;;4.23;72.48
48095;BME280;33874;52.070;-0.516;2023-03-03T02:40:26;102483.54;;;4.22;72.36
48095;BME280;33874;52.070;-0.516;2023-03-03T02:42:57;102486.02;;;4.21;72.60
48095;BME280;33874;52.070;-0.516;2023-03-03T02:45:28;102484.11;;;4.20;72.55
48095;BME280;33874;52.070;-0.516;2023-03-03T02:47:57;102486.54;;;4.20;72.63
48095;BME280;33874;52.070;-0.516;2023-03-03T02:50:25;102481.69;;;4.20;72.61
48095;BME280;33874;52.070;-0.516;2023-03-03T02:52:53;102482.38;;;4.20;72.66
48095;BME280;33874;52.070;-0.516;2023-03-03T02:55:22;102479.46;;;4.19;72.63
48095;BME280;33874;52.070;-0.516;2023-03-03T02:57:49;102480.38;;;4.17;72.67
48095;BME280;33874;52.070;-0.516;2023-03-03T03:00:18;102480.25;;;4.16;72.59
48095;BME280;33874;52.070;-0.516;2023-03-03T03:02:48;102482.02;;;4.15;72.58
48095;BME280;33874;52.070;-0.516;2023-03-03T03:05:16;102482.55;;;4.15;72.69
48095;BME280;33874;52.070;-0.516;2023-03-03T03:07:44;102481.31;;;4.15;72.69
48095;BME280;33874;52.070;-0.516;2023-03-03T03:10:14;102484.24;;;4.16;72.67
48095;BME280;33874;52.070;-0.516;2023-03-03T03:12:42;102483.92;;;4.16;72.64
48095;BME280;33874;52.070;-0.516;2023-03-03T03:15:11;102482.88;;;4.16;72.58
48095;BME280;33874;52.070;-0.516;2023-03-03T03:17:38;102477.52;;;4.14;72.57
48095;BME280;33874;52.070;-0.516;2023-03-03T03:20:06;102478.94;;;4.13;72.71
48095;BME280;33874;52.070;-0.516;2023-03-03T03:22:34;102479.13;;;4.13;72.78
48095;BME280;33874;52.070;-0.516;2023-03-03T03:25:02;102478.60;;;4.13;72.71
48095;BME280;33874;52.070;-0.516;2023-03-03T03:27:30;102478.27;;;4.13;72.80
48095;BME280;33874;52.070;-0.516;2023-03-03T03:29:58;102479.99;;;4.13;72.72
48095;BME280;33874;52.070;-0.516;2023-03-03T03:32:25;102478.94;;;4.13;72.78
48095;BME280;33874;52.070;-0.516;2023-03-03T03:34:55;102478.28;;;4.12;72.64
48095;BME280;33874;52.070;-0.516;2023-03-03T03:37:22;102482.11;;;4.12;72.65
48095;BME280;33874;52.070;-0.516;2023-03-03T03:39:50;102481.30;;;4.10;72.72
48095;BME280;33874;52.070;-0.516;2023-03-03T03:42:18;102481.36;;;4.08;72.75
48095;BME280;33874;52.070;-0.516;2023-03-03T03:44:46;102483.45;;;4.07;72.81
48095;BME280;33874;52.070;-0.516;2023-03-03T03:47:14;102487.71;;;4.05;72.67
48095;BME280;33874;52.070;-0.516;2023-03-03T03:49:42;102485.86;;;4.03;72.63
48095;BME280;33874;52.070;-0.516;2023-03-03T03:52:10;102486.05;;;4.02;72.93
48095;BME280;33874;52.070;-0.516;2023-03-03T03:54:37;102486.55;;;4.03;72.88
48095;BME280;33874;52.070;-0.516;2023-03-03T03:57:06;102483.93;;;4.04;72.85
48095;BME280;33874;52.070;-0.516;2023-03-03T03:59:34;102482.38;;;4.03;72.98
48095;BME280;33874;52.070;-0.516;2023-03-03T04:02:01;102481.38;;;4.02;72.98
48095;BME280;33874;52.070;-0.516;2023-03-03T04:04:30;102481.25;;;4.00;72.96
48095;BME280;33874;52.070;-0.516;2023-03-03T04:06:58;102478.73;;;3.96;72.95
48095;BME280;33874;52.070;-0.516;2023-03-03T04:09:26;102475.63;;;3.96;73.06
48095;BME280;33874;52.070;-0.516;2023-03-03T04:11:54;102475.98;;;3.96;73.15
48095;BME280;33874;52.070;-0.516;2023-03-03T04:14:22;102475.80;;;3.96;73.19
48095;BME280;33874;52.070;-0.516;2023-03-03T04:16:50;102478.73;;;3.97;73.32
48095;BME280;33874;52.070;-0.516;2023-03-03T04:19:18;102479.09;;;3.98;73.40
48095;BME280;33874;52.070;-0.516;2023-03-03T04:21:45;102480.48;;;3.97;73.36
48095;BME280;33874;52.070;-0.516;2023-03-03T04:24:13;102478.88;;;3.98;73.36
48095;BME280;33874;52.070;-0.516;2023-03-03T04:26:41;102479.02;;;3.99;73.50
48095;BME280;33874;52.070;-0.516;2023-03-03T04:29:09;102481.98;;;3.99;73.49
48095;BME280;33874;52.070;-0.516;2023-03-03T04:31:37;102481.16;;;3.97;73.51
48095;BME280;33874;52.070;-0.516;2023-03-03T04:34:04;102483.11;;;3.96;73.61
48095;BME280;33874;52.070;-0.516;2023-03-03T04:36:32;102484.52;;;3.95;73.64
48095;BME280;33874;52.070;-0.516;2023-03-03T04:39:00;102482.63;;;3.95;73.67
48095;BME280;33874;52.070;-0.516;2023-03-03T04:41:28;102484.89;;;3.95;73.64
48095;BME280;33874;52.070;-0.516;2023-03-03T04:43:56;102485.23;;;3.95;73.74
48095;BME280;33874;52.070;-0.516;2023-03-03T04:46:24;102488.73;;;3.94;73.77
48095;BME280;33874;52.070;-0.516;2023-03-03T04:48:52;102491.50;;;3.95;73.90
48095;BME280;33874;52.070;-0.516;2023-03-03T04:51:20;102490.07;;;3.96;73.88
48095;BME280;33874;52.070;-0.516;2023-03-03T04:53:48;102489.19;;;3.97;73.85
48095;BME280;33874;52.070;-0.516;2023-03-03T04:56:17;102490.58;;;3.96;73.79
48095;BME280;33874;52.070;-0.516;2023-03-03T04:58:45;102489.04;;;3.95;73.86
48095;BME280;33874;52.070;-0.516;2023-03-03T05:01:12;102488.55;;;3.95;74.00
48095;BME280;33874;52.070;-0.516;2023-03-03T05:03:43;102492.05;;;3.94;73.99
48095;BME280;33874;52.070;-0.516;2023-03-03T05:06:11;102491.55;;;3.93;73.94
48095;BME280;33874;52.070;-0.516;2023-03-03T05:08:39;102492.77;;;3.93;73.95
48095;BME280;33874;52.070;-0.516;2023-03-03T05:11:09;102492.59;;;3.93;73.94
48095;BME280;33874;52.070;-0.516;2023-03-03T05:13:37;102489.29;;;3.93;74.02
48095;BME280;33874;52.070;-0.516;2023-03-03T05:16:05;102493.10;;;3.94;74.19
48095;BME280;33874;52.070;-0.516;2023-03-03T05:18:34;102492.73;;;3.95;74.25
48095;BME280;33874;52.070;-0.516;2023-03-03T05:21:01;102494.78;;;3.95;74.07
48095;BME280;33874;52.070;-0.516;2023-03-03T05:23:30;102498.04;;;3.97;73.99
48095;BME280;33874;52.070;-0.516;2023-03-03T05:25:58;102502.02;;;3.98;74.10
48095;BME280;33874;52.070;-0.516;2023-03-03T05:28:27;102498.17;;;3.98;74.12
48095;BME280;33874;52.070;-0.516;2023-03-03T05:30:55;102495.61;;;3.97;74.12
48095;BME280;33874;52.070;-0.516;2023-03-03T05:33:22;102498.40;;;3.96;74.03
48095;BME280;33874;52.070;-0.516;2023-03-03T05:35:54;102499.98;;;3.96;73.99
48095;BME280;33874;52.070;-0.516;2023-03-03T05:38:23;102500.54;;;3.95;73.99
48095;BME280;33874;52.070;-0.516;2023-03-03T05:40:51;102503.66;;;3.95;74.00
48095;BME280;33874;52.070;-0.516;2023-03-03T05:43:19;102499.16;;;3.95;73.94
48095;BME280;33874;52.070;-0.516;2023-03-03T05:45:47;102499.00;;;3.94;74.09
48095;BME280;33874;52.070;-0.516;2023-03-03T05:48:20;102496.58;;;3.94;74.12
48095;BME280;33874;52.070;-0.516;2023-03-03T05:50:48;102498.67;;;3.93;74.07
48095;BME280;33874;52.070;-0.516;2023-03-03T05:53:16;102496.31;;;3.91;74.18
48095;BME280;33874;52.070;-0.516;2023-03-03T05:55:44;102499.48;;;3.90;74.28
48095;BME280;33874;52.070;-0.516;2023-03-03T05:58:12;102498.11;;;3.88;74.21
48095;BME280;33874;52.070;-0.516;2023-03-03T06:00:40;102501.31;;;3.86;74.30
48095;BME280;33874;52.070;-0.516;2023-03-03T06:03:08;102499.68;;;3.82;74.34
48095;BME280;33874;52.070;-0.516;2023-03-03T06:05:36;102498.98;;;3.82;74.33
48095;BME280;33874;52.070;-0.516;2023-03-03T06:08:04;102497.60;;;3.81;74.36
48095;BME280;33874;52.070;-0.516;2023-03-03T06:10:31;102497.77;;;3.82;74.41
48095;BME280;33874;52.070;-0.516;2023-03-03T06:12:59;102495.52;;;3.81;74.33
48095;BME280;33874;52.070;-0.516;2023-03-03T06:15:27;102495.73;;;3.80;74.40
48095;BME280;33874;52.070;-0.516;2023-03-03T06:17:55;102494.31;;;3.81;74.45
48095;BME280;33874;52.070;-0.516;2023-03-03T06:20:23;102495.17;;;3.81;74.49
48095;BME280;33874;52.070;-0.516;2023-03-03T06:22:50;102495.54;;;3.81;74.32
48095;BME280;33874;52.070;-0.516;2023-03-03T06:25:18;102498.69;;;3.81;74.34
48095;BME280;33874;52.070;-0.516;2023-03-03T06:27:46;102502.15;;;3.81;74.26
48095;BME280;33874;52.070;-0.516;2023-03-03T06:30:14;102500.60;;;3.80;74.33
48095;BME280;33874;52.070;-0.516;2023-03-03T06:32:42;102502.50;;;3.81;74.57
48095;BME280;33874;52.070;-0.516;2023-03-03T06:35:10;102508.95;;;3.81;74.49
48095;BME280;33874;52.070;-0.516;2023-03-03T06:37:38;102509.83;;;3.80;74.62
48095;BME280;33874;52.070;-0.516;2023-03-03T06:40:07;102510.70;;;3.80;74.71
48095;BME280;33874;52.070;-0.516;2023-03-03T06:42:35;102513.80;;;3.81;74.76
48095;BME280;33874;52.070;-0.516;2023-03-03T06:45:07;102511.55;;;3.81;74.93
48095;BME280;33874;52.070;-0.516;2023-03-03T06:47:34;102518.82;;;3.82;74.88
48095;BME280;33874;52.070;-0.516;2023-03-03T06:50:02;102519.30;;;3.83;74.95
48095;BME280;33874;52.070;-0.516;2023-03-03T06:52:30;102522.92;;;3.84;75.00
48095;BME280;33874;52.070;-0.516;2023-03-03T06:55:00;102522.79;;;3.83;74.93
48095;BME280;33874;52.070;-0.516;2023-03-03T06:57:29;102528.55;;;3.83;75.04
48095;BME280;33874;52.070;-0.516;2023-03-03T07:00:09;102533.80;;;3.81;74.99
48095;BME280;33874;52.070;-0.516;2023-03-03T07:02:38;102535.95;;;3.79;75.09
48095;BME280;33874;52.070;-0.516;2023-03-03T07:05:13;102542.21;;;3.78;75.16
48095;BME280;33874;52.070;-0.516;2023-03-03T07:07:41;102543.09;;;3.78;75.14
48095;BME280;33874;52.070;-0.516;2023-03-03T07:10:23;102545.86;;;3.79;75.23
48095;BME280;33874;52.070;-0.516;2023-03-03T07:12:52;102545.29;;;3.81;75.30
48095;BME280;33874;52.070;-0.516;2023-03-03T07:15:21;102546.30;;;3.81;75.51
48095;BME280;33874;52.070;-0.516;2023-03-03T07:17:54;102547.16;;;3.82;75.34
48095;BME280;33874;52.070;-0.516;2023-03-03T07:20:29;102550.60;;;3.84;75.38
48095;BME280;33874;52.070;-0.516;2023-03-03T07:22:59;102549.54;;;3.84;75.36
48095;BME280;33874;52.070;-0.516;2023-03-03T07:25:29;102543.41;;;3.86;75.49
48095;BME280;33874;52.070;-0.516;2023-03-03T07:27:59;102540.55;;;3.89;75.55
48095;BME280;33874;52.070;-0.516;2023-03-03T07:30:28;102544.52;;;3.91;75.49
48095;BME280;33874;52.070;-0.516;2023-03-03T07:32:57;102547.23;;;3.92;75.39
48095;BME280;33874;52.070;-0.516;2023-03-03T07:37:56;102552.94;;;3.94;75.44
48095;BME280;33874;52.070;-0.516;2023-03-03T07:40:37;102553.80;;;3.94;75.31
48095;BME280;33874;52.070;-0.516;2023-03-03T07:45:45;102556.70;;;3.96;75.48
48095;BME280;33874;52.070;-0.516;2023-03-03T07:50:44;102557.30;;;3.99;75.38
48095;BME280;33874;52.070;-0.516;2023-03-03T07:55:52;102562.10;;;4.08;75.52
48095;BME280;33874;52.070;-0.516;2023-03-03T07:58:25;102565.30;;;4.12;75.48
48095;BME280;33874;52.070;-0.516;2023-03-03T08:03:41;102570.46;;;4.19;75.62
48095;BME280;33874;52.070;-0.516;2023-03-03T08:08:56;102582.95;;;4.27;75.59
48095;BME280;33874;52.070;-0.516;2023-03-03T08:11:27;102587.09;;;4.28;75.60
48095;BME280;33874;52.070;-0.516;2023-03-03T08:13:55;102594.95;;;4.27;75.59
48095;BME280;33874;52.070;-0.516;2023-03-03T08:16:24;102591.48;;;4.27;75.68
48095;BME280;33874;52.070;-0.516;2023-03-03T08:18:57;102596.15;;;4.28;75.82
48095;BME280;33874;52.070;-0.516;2023-03-03T08:21:28;102598.85;;;4.30;75.93
48095;BME280;33874;52.070;-0.516;2023-03-03T08:23:58;102600.05;;;4.38;76.01
48095;BME280;33874;52.070;-0.516;2023-03-03T08:26:26;102599.61;;;4.46;75.88
48095;BME280;33874;52.070;-0.516;2023-03-03T08:28:54;102602.42;;;4.51;75.91
48095;BME280;33874;52.070;-0.516;2023-03-03T08:31:22;102605.47;;;4.54;76.04
48095;BME280;33874;52.070;-0.516;2023-03-03T08:34:07;102603.85;;;4.56;75.86
48095;BME280;33874;52.070;-0.516;2023-03-03T08:36:35;102605.59;;;4.56;75.69
48095;BME280;33874;52.070;-0.516;2023-03-03T08:39:04;102606.55;;;4.59;75.72
48095;BME280;33874;52.070;-0.516;2023-03-03T08:41:33;102605.48;;;4.66;75.90
48095;BME280;33874;52.070;-0.516;2023-03-03T08:44:01;102611.47;;;4.74;75.67
48095;BME280;33874;52.070;-0.516;2023-03-03T08:46:29;102604.42;;;4.83;75.49
48095;BME280;33874;52.070;-0.516;2023-03-03T08:48:57;102606.02;;;4.93;75.28
48095;BME280;33874;52.070;-0.516;2023-03-03T08:51:25;102609.41;;;5.02;75.24
48095;BME280;33874;52.070;-0.516;2023-03-03T08:53:53;102609.09;;;5.12;75.06
48095;BME280;33874;52.070;-0.516;2023-03-03T08:56:22;102608.15;;;5.19;75.01
48095;BME280;33874;52.070;-0.516;2023-03-03T08:58:51;102609.61;;;5.23;74.77
48095;BME280;33874;52.070;-0.516;2023-03-03T09:01:30;102613.27;;;5.27;74.74
48095;BME280;33874;52.070;-0.516;2023-03-03T09:03:58;102610.99;;;5.33;74.63
48095;BME280;33874;52.070;-0.516;2023-03-03T09:06:26;102609.46;;;5.37;74.30
48095;BME280;33874;52.070;-0.516;2023-03-03T09:08:54;102608.13;;;5.41;74.44
48095;BME280;33874;52.070;-0.516;2023-03-03T09:11:26;102610.10;;;5.44;74.25
48095;BME280;33874;52.070;-0.516;2023-03-03T09:14:14;102605.93;;;5.49;74.42
48095;BME280;33874;52.070;-0.516;2023-03-03T09:16:44;102605.15;;;5.56;74.70
48095;BME280;33874;52.070;-0.516;2023-03-03T09:19:21;102605.69;;;5.61;74.46
48095;BME280;33874;52.070;-0.516;2023-03-03T09:21:51;102609.71;;;5.66;74.46
48095;BME280;33874;52.070;-0.516;2023-03-03T09:24:25;102606.31;;;5.68;74.38
48095;BME280;33874;52.070;-0.516;2023-03-03T09:26:54;102609.09;;;5.68;74.41
48095;BME280;33874;52.070;-0.516;2023-03-03T09:29:23;102609.86;;;5.67;74.03
48095;BME280;33874;52.070;-0.516;2023-03-03T09:31:55;102606.54;;;5.67;74.08
48095;BME280;33874;52.070;-0.516;2023-03-03T09:36:57;102617.79;;;5.64;73.76
48095;BME280;33874;52.070;-0.516;2023-03-03T09:39:28;102617.86;;;5.62;73.60
48095;BME280;33874;52.070;-0.516;2023-03-03T09:47:35;102624.42;;;5.70;73.84
48095;BME280;33874;52.070;-0.516;2023-03-03T09:58:20;102629.92;;;5.92;73.70
48095;BME280;33874;52.070;-0.516;2023-03-03T10:06:21;102637.91;;;5.98;73.74
48095;BME280;33874;52.070;-0.516;2023-03-03T10:11:31;102643.48;;;5.88;73.45
48095;BME280;33874;52.070;-0.516;2023-03-03T10:19:36;102647.73;;;5.92;73.51
48095;BME280;33874;52.070;-0.516;2023-03-03T10:22:19;102647.43;;;5.90;73.73
48095;BME280;33874;52.070;-0.516;2023-03-03T10:33:11;102647.80;;;6.00;73.05
48095;BME280;33874;52.070;-0.516;2023-03-03T10:46:33;102652.15;;;6.00;73.33
48095;BME280;33874;52.070;-0.516;2023-03-03T10:51:52;102652.18;;;6.10;73.62
48095;BME280;33874;52.070;-0.516;2023-03-03T11:01:59;102655.83;;;6.25;73.31
48095;BME280;33874;52.070;-0.516;2023-03-03T11:07:07;102655.29;;;6.35;73.42
48095;BME280;33874;52.070;-0.516;2023-03-03T11:12:24;102653.12;;;6.37;72.92
48095;BME280;33874;52.070;-0.516;2023-03-03T11:25:29;102660.54;;;5.95;73.17
48095;BME280;33874;52.070;-0.516;2023-03-03T11:30:36;102665.98;;;5.84;73.57
48095;BME280;33874;52.070;-0.516;2023-03-03T11:33:33;102668.23;;;5.79;73.62
48095;BME280;33874;52.070;-0.516;2023-03-03T11:38:59;102672.15;;;5.71;73.40
48095;BME280;33874;52.070;-0.516;2023-03-03T11:44:16;102674.70;;;5.73;73.51
48095;BME280;33874;52.070;-0.516;2023-03-03T11:46:53;102670.92;;;5.76;73.36
48095;BME280;33874;52.070;-0.516;2023-03-03T11:59:41;102669.89;;;5.76;72.89
48095;BME280;33874;52.070;-0.516;2023-03-03T12:02:23;102668.30;;;5.72;72.63
48095;BME280;33874;52.070;-0.516;2023-03-03T12:04:59;102669.80;;;5.64;72.65
48095;BME280;33874;52.070;-0.516;2023-03-03T12:07:51;102666.89;;;5.57;72.75
48095;BME280;33874;52.070;-0.516;2023-03-03T12:10:26;102665.46;;;5.52;72.64
48095;BME280;33874;52.070;-0.516;2023-03-03T12:13:19;102668.75;;;5.48;72.57
48095;BME280;33874;52.070;-0.516;2023-03-03T12:18:22;102664.98;;;5.50;73.00
48095;BME280;33874;52.070;-0.516;2023-03-03T12:23:59;102664.69;;;5.65;73.15
48095;BME280;33874;52.070;-0.516;2023-03-03T12:31:54;102665.24;;;5.90;72.74
48095;BME280;33874;52.070;-0.516;2023-03-03T12:36:59;102655.11;;;6.06;72.51
48095;BME280;33874;52.070;-0.516;2023-03-03T12:40:06;102654.71;;;6.12;72.21
48095;BME280;33874;52.070;-0.516;2023-03-03T12:45:32;102647.78;;;6.15;72.03
48095;BME280;33874;52.070;-0.516;2023-03-03T12:50:59;102649.77;;;6.19;71.69
48095;BME280;33874;52.070;-0.516;2023-03-03T12:53:33;102646.08;;;6.24;71.83
48095;BME280;33874;52.070;-0.516;2023-03-03T12:56:06;102643.11;;;6.29;71.68
48095;BME280;33874;52.070;-0.516;2023-03-03T13:01:35;102643.39;;;6.35;71.61
48095;BME280;33874;52.070;-0.516;2023-03-03T13:15:02;102628.67;;;6.13;70.92
48095;BME280;33874;52.070;-0.516;2023-03-03T13:17:37;102625.14;;;6.09;71.15
48095;BME280;33874;52.070;-0.516;2023-03-03T13:27:58;102627.35;;;6.01;71.34
48095;BME280;33874;52.070;-0.516;2023-03-03T13:30:29;102625.39;;;6.07;71.48
48095;BME280;33874;52.070;-0.516;2023-03-03T13:35:43;102622.35;;;6.28;71.12
48095;BME280;33874;52.070;-0.516;2023-03-03T13:38:13;102614.72;;;6.32;71.32
48095;BME280;33874;52.070;-0.516;2023-03-03T13:40:45;102614.80;;;6.34;71.18
48095;BME280;33874;52.070;-0.516;2023-03-03T13:43:21;102610.25;;;6.35;71.07
48095;BME280;33874;52.070;-0.516;2023-03-03T13:46:01;102605.83;;;6.41;71.23
48095;BME280;33874;52.070;-0.516;2023-03-03T13:48:36;102604.04;;;6.46;71.16
48095;BME280;33874;52.070;-0.516;2023-03-03T13:51:13;102603.07;;;6.53;71.27
48095;BME280;33874;52.070;-0.516;2023-03-03T13:53:57;102602.42;;;6.61;71.29
48095;BME280;33874;52.070;-0.516;2023-03-03T14:04:04;102598.02;;;6.49;70.85
48095;BME280;33874;52.070;-0.516;2023-03-03T14:06:33;102600.11;;;6.44;70.88
48095;BME280;33874;52.070;-0.516;2023-03-03T14:09:17;102603.09;;;6.39;71.04
48095;BME280;33874;52.070;-0.516;2023-03-03T14:12:10;102600.50;;;6.34;71.26
48095;BME280;33874;52.070;-0.516;2023-03-03T14:15:02;102599.46;;;6.29;71.36
48095;BME280;33874;52.070;-0.516;2023-03-03T14:17:37;102607.73;;;6.22;71.58
48095;BME280;33874;52.070;-0.516;2023-03-03T14:22:51;102601.05;;;6.09;71.97
48095;BME280;33874;52.070;-0.516;2023-03-03T14:25:20;102594.02;;;6.11;72.10
48095;BME280;33874;52.070;-0.516;2023-03-03T14:35:37;102592.84;;;6.33;71.77
48095;BME280;33874;52.070;-0.516;2023-03-03T14:38:13;102589.54;;;6.37;71.36
48095;BME280;33874;52.070;-0.516;2023-03-03T14:40:42;102592.83;;;6.42;71.14
48095;BME280;33874;52.070;-0.516;2023-03-03T14:45:46;102592.36;;;6.46;71.25
48095;BME280;33874;52.070;-0.516;2023-03-03T14:48:17;102590.44;;;6.46;71.16
48095;BME280;33874;52.070;-0.516;2023-03-03T14:50:48;102588.40;;;6.44;71.30
48095;BME280;33874;52.070;-0.516;2023-03-03T14:55:45;102586.19;;;6.33;71.17
48095;BME280;33874;52.070;-0.516;2023-03-03T14:58:27;102585.31;;;6.28;71.22
48095;BME280;33874;52.070;-0.516;2023-03-03T15:01:06;102584.44;;;6.24;71.03
48095;BME280;33874;52.070;-0.516;2023-03-03T15:03:35;102585.36;;;6.18;70.97
48095;BME280;33874;52.070;-0.516;2023-03-03T15:06:09;102586.41;;;6.13;71.10
48095;BME280;33874;52.070;-0.516;2023-03-03T15:08:40;102583.38;;;6.10;71.17
48095;BME280;33874;52.070;-0.516;2023-03-03T15:13:45;102582.73;;;6.09;70.77
48095;BME280;33874;52.070;-0.516;2023-03-03T15:16:17;102579.09;;;6.08;70.88
48095;BME280;33874;52.070;-0.516;2023-03-03T15:19:00;102577.52;;;6.08;71.04
48095;BME280;33874;52.070;-0.516;2023-03-03T15:21:34;102578.98;;;6.11;71.03
48095;BME280;33874;52.070;-0.516;2023-03-03T15:34:35;102559.39;;;6.26;70.09
48095;BME280;33874;52.070;-0.516;2023-03-03T15:37:11;102559.92;;;6.31;69.98
48095;BME280;33874;52.070;-0.516;2023-03-03T15:53:03;102540.30;;;6.37;70.09
48095;BME280;33874;52.070;-0.516;2023-03-03T16:01:01;102537.60;;;6.48;70.06
48095;BME280;33874;52.070;-0.516;2023-03-03T16:03:38;102533.69;;;6.54;70.27
48095;BME280;33874;52.070;-0.516;2023-03-03T16:17:42;102530.07;;;6.66;69.81
48095;BME280;33874;52.070;-0.516;2023-03-03T16:22:45;102528.42;;;6.68;69.08
48095;BME280;33874;52.070;-0.516;2023-03-03T16:25:23;102526.20;;;6.66;68.88
48095;BME280;33874;52.070;-0.516;2023-03-03T16:33:01;102525.45;;;6.59;67.75
48095;BME280;33874;52.070;-0.516;2023-03-03T16:35:47;102527.45;;;6.57;67.70
48095;BME280;33874;52.070;-0.516;2023-03-03T16:38:22;102531.15;;;6.56;67.60
48095;BME280;33874;52.070;-0.516;2023-03-03T16:40:53;102532.11;;;6.54;67.39
48095;BME280;33874;52.070;-0.516;2023-03-03T16:43:31;102533.96;;;6.52;67.22
48095;BME280;33874;52.070;-0.516;2023-03-03T16:46:48;102534.23;;;6.49;67.17
48095;BME280;33874;52.070;-0.516;2023-03-03T16:54:02;102538.80;;;6.44;66.50
48095;BME280;33874;52.070;-0.516;2023-03-03T16:56:39;102538.09;;;6.39;66.45
48095;BME280;33874;52.070;-0.516;2023-03-03T17:01:49;102545.83;;;6.30;66.07
48095;BME280;33874;52.070;-0.516;2023-03-03T17:04:41;102547.91;;;6.24;65.85
48095;BME280;33874;52.070;-0.516;2023-03-03T17:18:19;102569.98;;;5.95;65.83
48095;BME280;33874;52.070;-0.516;2023-03-03T17:26:19;102579.83;;;5.77;65.86
48095;BME280;33874;52.070;-0.516;2023-03-03T17:34:09;102589.05;;;5.63;65.90
48095;BME280;33874;52.070;-0.516;2023-03-03T17:44:32;102602.42;;;5.50;66.31
48095;BME280;33874;52.070;-0.516;2023-03-03T17:47:06;102604.38;;;5.48;66.36
48095;BME280;33874;52.070;-0.516;2023-03-03T17:52:21;102604.91;;;5.48;66.49